createdAt,value
2022-09-23T00:01:54.009Z,15.73
2022-09-23T00:04:24.571Z,15.52
2022-09-23T00:06:57.285Z,15.37
2022-09-23T00:09:26.356Z,15.59
2022-09-23T00:11:55.600Z,15.57
2022-09-23T00:14:28.955Z,15.44
2022-09-23T00:17:01.844Z,15.00
2022-09-23T00:19:33.955Z,15.26
2022-09-23T00:22:03.770Z,15.20
2022-09-23T00:24:34.294Z,15.42
2022-09-23T00:27:02.473Z,15.29
2022-09-23T00:29:32.146Z,15.10
2022-09-23T00:32:01.706Z,15.51
2022-09-23T00:34:30.991Z,15.75
2022-09-23T00:37:01.550Z,15.76
2022-09-23T00:39:29.898Z,15.43
2022-09-23T00:41:58.603Z,15.18
2022-09-23T00:44:47.095Z,14.91
2022-09-23T00:47:21.895Z,14.53
2022-09-23T00:49:55.082Z,13.95
2022-09-23T00:52:25.835Z,13.58
2022-09-23T00:54:56.798Z,14.07
2022-09-23T00:57:25.820Z,14.14
2022-09-23T01:00:02.651Z,14.50
2022-09-23T01:02:34.089Z,14.33
2022-09-23T01:05:03.330Z,14.37
2022-09-23T01:07:32.244Z,14.76
2022-09-23T01:10:01.300Z,14.81
2022-09-23T01:12:42.730Z,14.73
2022-09-23T01:15:17.792Z,15.15
2022-09-23T01:17:54.147Z,15.43
2022-09-23T01:20:41.889Z,15.47
2022-09-23T01:23:18.367Z,15.57
2022-09-23T01:26:00.057Z,15.61
2022-09-23T01:28:37.148Z,15.89
2022-09-23T01:31:10.926Z,15.75
2022-09-23T01:33:51.182Z,15.58
2022-09-23T01:36:25.023Z,15.47
2022-09-23T01:38:59.262Z,15.26
2022-09-23T01:41:35.575Z,14.69
2022-09-23T01:44:06.912Z,14.58
2022-09-23T01:46:43.104Z,14.37
2022-09-23T01:49:15.094Z,15.02
2022-09-23T01:51:47.308Z,15.30
2022-09-23T01:54:18.940Z,15.14
2022-09-23T01:56:52.482Z,15.20
2022-09-23T01:59:24.738Z,14.49
2022-09-23T02:01:57.879Z,14.78
2022-09-23T02:04:30.744Z,14.48
2022-09-23T02:07:01.529Z,13.85
2022-09-23T02:09:39.015Z,14.09
2022-09-23T02:12:12.710Z,14.48
2022-09-23T02:14:43.921Z,14.68
2022-09-23T02:17:15.924Z,14.39
2022-09-23T02:19:53.284Z,14.27
2022-09-23T02:22:26.319Z,14.30
2022-09-23T02:25:03.149Z,14.11
2022-09-23T02:27:33.779Z,13.90
2022-09-23T02:30:04.588Z,13.68
2022-09-23T02:32:42.256Z,13.64
2022-09-23T02:35:18.141Z,13.96
2022-09-23T02:37:51.455Z,13.25
2022-09-23T02:40:23.733Z,13.08
2022-09-23T02:42:58.182Z,13.35
2022-09-23T02:45:26.498Z,13.50
2022-09-23T02:48:04.939Z,13.70
2022-09-23T02:50:33.980Z,13.56
2022-09-23T02:53:02.760Z,13.52
2022-09-23T02:55:33.871Z,13.64
2022-09-23T02:58:02.871Z,13.63
2022-09-23T03:00:38.162Z,13.49
2022-09-23T03:03:13.832Z,13.83
2022-09-23T03:05:47.494Z,14.09
2022-09-23T03:08:30.509Z,13.93
2022-09-23T03:11:11.778Z,13.62
2022-09-23T03:13:48.930Z,13.70
2022-09-23T03:16:19.952Z,13.90
2022-09-23T03:18:53.001Z,13.58
2022-09-23T03:21:24.902Z,13.32
2022-09-23T03:23:54.706Z,13.67
2022-09-23T03:26:24.714Z,13.48
2022-09-23T03:28:53.239Z,13.39
2022-09-23T03:31:21.627Z,13.08
2022-09-23T03:33:53.596Z,13.28
2022-09-23T03:36:43.331Z,13.39
2022-09-23T03:39:13.939Z,13.94
2022-09-23T03:41:44.768Z,14.25
2022-09-23T03:44:13.344Z,13.31
2022-09-23T03:46:46.758Z,13.90
2022-09-23T03:49:17.968Z,13.76
2022-09-23T03:51:46.153Z,13.68
2022-09-23T03:54:14.259Z,13.62
2022-09-23T03:56:42.506Z,14.23
2022-09-23T03:59:10.683Z,14.38
2022-09-23T04:01:38.788Z,14.73
2022-09-23T04:04:07.025Z,14.93
2022-09-23T04:06:36.899Z,14.57
2022-09-23T04:09:05.152Z,14.99
2022-09-23T04:11:33.300Z,15.09
2022-09-23T04:14:01.376Z,13.68
2022-09-23T04:16:29.652Z,14.21
2022-09-23T04:18:57.840Z,14.74
2022-09-23T04:21:26.429Z,14.35
2022-09-23T04:23:56.244Z,14.37
2022-09-23T04:26:24.649Z,14.61
2022-09-23T04:28:52.748Z,14.68
2022-09-23T04:31:23.264Z,14.01
2022-09-23T04:33:51.460Z,13.69
2022-09-23T04:36:19.523Z,14.24
2022-09-23T04:38:49.204Z,14.85
2022-09-23T04:41:19.411Z,15.65
2022-09-23T04:43:47.653Z,15.60
2022-09-23T04:46:16.675Z,15.70
2022-09-23T04:48:44.822Z,15.57
2022-09-23T04:51:14.064Z,15.05
2022-09-23T04:53:43.591Z,14.54
2022-09-23T04:56:12.925Z,15.12
2022-09-23T04:58:43.035Z,14.69
2022-09-23T05:01:12.053Z,15.01
2022-09-23T05:03:41.259Z,14.76
2022-09-23T05:06:09.864Z,15.15
2022-09-23T05:08:37.962Z,15.26
2022-09-23T05:11:06.462Z,15.54
2022-09-23T05:13:35.503Z,15.78
2022-09-23T05:16:06.306Z,16.50
2022-09-23T05:18:35.413Z,16.09
2022-09-23T05:21:04.080Z,16.12
2022-09-23T05:23:32.190Z,15.30
2022-09-23T05:26:01.139Z,14.77
2022-09-23T05:28:30.069Z,14.76
2022-09-23T05:31:03.199Z,14.60
2022-09-23T05:33:32.935Z,15.43
2022-09-23T05:36:04.923Z,16.49
2022-09-23T05:38:33.217Z,15.69
2022-09-23T05:41:02.086Z,15.68
2022-09-23T05:43:30.717Z,15.32
2022-09-23T05:46:07.768Z,15.60
2022-09-23T05:48:38.357Z,15.58
2022-09-23T05:51:12.946Z,15.63
2022-09-23T05:53:42.775Z,15.16
2022-09-23T05:56:10.933Z,15.51
2022-09-23T05:58:39.050Z,14.69
2022-09-23T06:01:10.883Z,14.76
2022-09-23T06:03:40.863Z,14.39
2022-09-23T06:06:09.182Z,14.61
2022-09-23T06:08:37.883Z,15.07
2022-09-23T06:11:07.793Z,15.98
2022-09-23T06:13:38.387Z,14.76
2022-09-23T06:16:08.180Z,15.39
2022-09-23T06:18:36.903Z,15.42
2022-09-23T06:21:06.814Z,16.29
2022-09-23T06:23:38.435Z,16.33
2022-09-23T06:26:09.844Z,16.44
2022-09-23T06:28:39.309Z,15.70
2022-09-23T06:31:13.099Z,15.41
2022-09-23T06:33:41.948Z,15.26
2022-09-23T06:36:12.205Z,14.97
2022-09-23T06:38:40.864Z,15.64
2022-09-23T06:41:09.203Z,16.00
2022-09-23T06:43:37.392Z,15.96
2022-09-23T06:46:07.390Z,15.63
2022-09-23T06:48:36.393Z,15.63
2022-09-23T06:51:07.366Z,16.10
2022-09-23T06:53:37.244Z,16.28
2022-09-23T06:56:06.639Z,15.80
2022-09-23T06:58:35.433Z,16.58
2022-09-23T07:01:03.634Z,17.31
2022-09-23T07:03:32.119Z,16.38
2022-09-23T07:06:00.723Z,16.19
2022-09-23T07:08:29.747Z,16.06
2022-09-23T07:11:00.497Z,15.49
2022-09-23T07:13:29.553Z,15.70
2022-09-23T07:15:58.615Z,15.52
2022-09-23T07:18:27.606Z,15.11
2022-09-23T07:20:58.931Z,15.22
2022-09-23T07:23:27.146Z,14.74
2022-09-23T07:25:59.715Z,15.57
2022-09-23T07:28:29.534Z,15.52
2022-09-23T07:31:00.586Z,15.43
2022-09-23T07:33:32.495Z,15.70
2022-09-23T07:36:04.882Z,15.79
2022-09-23T07:38:33.094Z,15.06
2022-09-23T07:41:05.287Z,14.81
2022-09-23T07:43:35.159Z,14.73
2022-09-23T07:46:05.077Z,14.89
2022-09-23T07:48:34.618Z,15.02
2022-09-23T07:51:07.380Z,14.99
2022-09-23T07:53:36.170Z,15.06
2022-09-23T07:56:06.734Z,15.57
2022-09-23T07:58:36.526Z,15.37
2022-09-23T08:01:05.829Z,16.74
2022-09-23T08:03:35.164Z,17.58
2022-09-23T08:06:07.459Z,17.32
2022-09-23T08:08:35.839Z,17.29
2022-09-23T08:11:04.666Z,17.39
2022-09-23T08:13:33.343Z,16.36
2022-09-23T08:16:03.176Z,16.34
2022-09-23T08:18:31.426Z,16.88
2022-09-23T08:20:59.589Z,17.04
2022-09-23T08:23:27.913Z,16.81
2022-09-23T08:26:00.147Z,17.52
2022-09-23T08:28:28.964Z,17.50
2022-09-23T08:30:57.371Z,17.71
2022-09-23T08:33:27.048Z,17.18
2022-09-23T08:36:00.117Z,17.60
2022-09-23T08:38:28.755Z,17.40
2022-09-23T08:41:04.641Z,17.50
2022-09-23T08:43:34.463Z,16.44
2022-09-23T08:46:05.302Z,16.66
2022-09-23T08:48:36.589Z,16.50
2022-09-23T08:51:06.609Z,17.39
2022-09-23T08:53:35.746Z,16.81
2022-09-23T08:56:07.255Z,17.08
2022-09-23T08:58:43.303Z,16.47
2022-09-23T09:01:14.975Z,17.42
2022-09-23T09:03:47.513Z,17.54
2022-09-23T09:06:19.172Z,16.84
2022-09-23T09:08:52.413Z,16.87
2022-09-23T09:11:21.669Z,17.71
2022-09-23T09:13:53.176Z,16.54
2022-09-23T09:16:55.413Z,16.94
2022-09-23T09:19:20.553Z,16.48
2022-09-23T09:21:49.511Z,16.63
2022-09-23T09:24:18.992Z,16.43
2022-09-23T09:26:47.284Z,17.25
2022-09-23T09:29:34.285Z,16.17
2022-09-23T09:32:12.518Z,16.42
2022-09-23T09:34:45.110Z,17.24
2022-09-23T09:37:17.044Z,16.82
2022-09-23T09:39:45.227Z,16.63
2022-09-23T09:42:18.670Z,16.69
2022-09-23T09:44:50.776Z,16.84
2022-09-23T09:47:29.673Z,16.76
2022-09-23T09:50:05.682Z,17.44
2022-09-23T09:52:33.842Z,17.58
2022-09-23T09:55:17.521Z,18.58
2022-09-23T09:57:48.036Z,18.11
2022-09-23T10:00:21.124Z,18.19
2022-09-23T10:02:53.568Z,17.25
2022-09-23T10:05:28.491Z,17.70
2022-09-23T10:07:56.713Z,17.31
2022-09-23T10:10:32.709Z,17.45
2022-09-23T10:13:14.802Z,17.41
2022-09-23T10:15:45.219Z,17.14
2022-09-23T10:18:19.745Z,17.49
2022-09-23T10:20:49.433Z,17.34
2022-09-23T10:23:21.161Z,16.95
2022-09-23T10:25:57.705Z,16.78
2022-09-23T10:28:46.923Z,16.97
2022-09-23T10:31:16.842Z,16.55
2022-09-23T10:33:49.216Z,16.67
2022-09-23T10:36:19.844Z,17.24
2022-09-23T10:38:50.078Z,16.41
2022-09-23T10:41:49.885Z,16.61
2022-09-23T10:44:45.975Z,17.21
2022-09-23T10:47:19.605Z,17.08
2022-09-23T10:49:53.408Z,17.36
2022-09-23T10:52:32.307Z,16.86
2022-09-23T10:55:06.825Z,16.95
2022-09-23T10:57:48.475Z,16.31
2022-09-23T11:00:30.279Z,16.63
2022-09-23T11:03:15.309Z,16.42
2022-09-23T11:05:47.968Z,16.59
2022-09-23T11:08:32.443Z,16.64
2022-09-23T11:11:11.726Z,16.23
2022-09-23T11:13:54.528Z,16.58
2022-09-23T11:16:29.711Z,16.41
2022-09-23T11:19:22.263Z,16.70
2022-09-23T11:21:58.419Z,16.87
2022-09-23T11:24:52.199Z,16.75
2022-09-23T11:27:29.861Z,16.70
2022-09-23T11:30:07.556Z,16.40
2022-09-23T11:32:44.000Z,16.65
2022-09-23T11:35:16.328Z,16.14
2022-09-23T11:37:46.059Z,15.36
2022-09-23T11:40:19.374Z,15.69
2022-09-23T11:42:52.305Z,15.69
2022-09-23T11:45:23.478Z,15.90
2022-09-23T11:51:23.544Z,16.23
2022-09-23T11:53:55.177Z,16.59
2022-09-23T11:56:34.929Z,16.02
2022-09-23T11:59:07.700Z,16.13
2022-09-23T12:01:43.097Z,16.29
2022-09-23T12:04:21.141Z,15.78
2022-09-23T12:06:51.636Z,15.74
2022-09-23T12:09:40.897Z,16.09
2022-09-23T12:12:15.286Z,15.93
2022-09-23T12:14:56.301Z,15.84
2022-09-23T12:17:38.266Z,16.48
2022-09-23T12:20:13.309Z,16.30
2022-09-23T12:22:48.700Z,16.19
2022-09-23T12:25:27.937Z,15.71
2022-09-23T12:28:02.364Z,15.57
2022-09-23T12:30:33.878Z,15.41
2022-09-23T12:33:09.153Z,15.86
2022-09-23T12:35:42.612Z,15.58
2022-09-23T12:38:14.385Z,15.54
2022-09-23T12:40:44.718Z,15.94
2022-09-23T12:43:19.168Z,15.50
2022-09-23T12:45:48.217Z,15.52
2022-09-23T12:48:34.045Z,16.24
2022-09-23T12:51:15.946Z,15.84
2022-09-23T12:53:53.298Z,15.90
2022-09-23T12:56:23.065Z,15.92
2022-09-23T12:59:14.668Z,15.83
2022-09-23T13:01:43.293Z,16.13
2022-09-23T13:04:43.509Z,16.25
2022-09-23T13:07:11.704Z,16.41
2022-09-23T13:09:42.182Z,16.16
2022-09-23T13:12:19.604Z,16.48
2022-09-23T13:14:51.470Z,16.91
2022-09-23T13:17:32.209Z,17.02
2022-09-23T13:20:02.111Z,16.97
2022-09-23T13:22:49.675Z,16.48
2022-09-23T13:25:20.688Z,16.06
2022-09-23T13:27:50.865Z,16.37
2022-09-23T13:30:25.722Z,16.06
2022-09-23T13:33:01.573Z,16.33
2022-09-23T13:35:33.618Z,16.22
2022-09-23T13:38:10.335Z,16.04
2022-09-23T13:40:40.435Z,15.74
2022-09-23T13:43:12.820Z,15.81
2022-09-23T13:45:43.787Z,16.09
2022-09-23T13:48:13.759Z,16.14
2022-09-23T13:50:45.303Z,15.86
2022-09-23T13:53:17.720Z,15.86
2022-09-23T13:55:49.035Z,15.99
2022-09-23T13:58:21.303Z,15.92
2022-09-23T14:00:51.964Z,16.69
2022-09-23T14:03:24.941Z,15.95
2022-09-23T14:05:54.229Z,15.43
2022-09-23T14:08:22.966Z,15.46
2022-09-23T14:10:51.432Z,15.50
2022-09-23T14:13:25.550Z,15.58
2022-09-23T14:15:58.371Z,15.27
2022-09-23T14:18:30.077Z,15.23
2022-09-23T14:20:58.232Z,15.35
2022-09-23T14:23:26.439Z,15.38
2022-09-23T14:25:55.169Z,14.96
2022-09-23T14:28:24.271Z,15.18
2022-09-23T14:30:53.939Z,15.45
2022-09-23T14:33:27.032Z,14.88
2022-09-23T14:35:57.593Z,15.36
2022-09-23T14:38:45.253Z,14.83
2022-09-23T14:41:18.302Z,15.13
2022-09-23T14:43:50.709Z,15.30
2022-09-23T14:46:20.409Z,14.97
2022-09-23T14:48:58.438Z,14.91
2022-09-23T14:51:34.162Z,14.99
2022-09-23T14:54:21.119Z,14.56
2022-09-23T14:56:49.438Z,14.15
2022-09-23T14:59:25.805Z,14.08
2022-09-23T15:01:54.536Z,14.02
2022-09-23T15:04:32.417Z,14.74
2022-09-23T15:07:02.794Z,14.22
2022-09-23T15:09:33.223Z,14.18
2022-09-23T15:12:03.068Z,14.28
2022-09-23T15:14:38.236Z,14.52
2022-09-23T15:17:09.559Z,14.39
2022-09-23T15:19:39.213Z,14.35
2022-09-23T15:22:08.754Z,14.54
2022-09-23T15:24:44.905Z,14.46
2022-09-23T15:27:24.035Z,14.35
2022-09-23T15:29:52.429Z,14.26
2022-09-23T15:32:20.547Z,14.48
2022-09-23T15:34:51.704Z,14.06
2022-09-23T15:37:19.864Z,14.10
2022-09-23T15:39:48.291Z,14.08
2022-09-23T15:42:18.418Z,13.93
2022-09-23T15:44:46.597Z,13.95
2022-09-23T15:47:17.302Z,13.86
2022-09-23T15:49:47.214Z,13.99
2022-09-23T15:52:17.760Z,14.17
2022-09-23T15:54:46.095Z,14.39
2022-09-23T15:57:14.286Z,14.10
2022-09-23T15:59:42.616Z,13.81
2022-09-23T16:02:16.613Z,13.65
2022-09-23T16:04:50.499Z,13.81
2022-09-23T16:07:21.197Z,13.62
2022-09-23T16:09:49.451Z,13.64
2022-09-23T16:12:17.783Z,13.50
2022-09-23T16:14:45.980Z,13.53
2022-09-23T16:17:15.150Z,13.28
2022-09-23T16:19:43.619Z,13.34
2022-09-23T16:22:13.062Z,13.33
2022-09-23T16:24:42.830Z,13.26
2022-09-23T16:27:12.793Z,13.11
2022-09-23T16:29:40.977Z,13.08
2022-09-23T16:32:09.117Z,13.09
2022-09-23T16:34:37.268Z,12.92
2022-09-23T16:37:07.191Z,12.89
2022-09-23T16:39:35.473Z,12.76
2022-09-23T16:42:05.132Z,12.74
2022-09-23T16:44:33.385Z,12.88
2022-09-23T16:47:01.577Z,12.81
2022-09-23T16:49:29.827Z,13.14
2022-09-23T16:51:57.959Z,13.21
2022-09-23T16:54:26.059Z,13.06
2022-09-23T16:56:55.225Z,12.98
2022-09-23T16:59:44.838Z,12.98
2022-09-23T17:02:30.973Z,12.92
2022-09-23T17:04:59.188Z,12.86
2022-09-23T17:07:27.428Z,13.18
2022-09-23T17:09:55.643Z,13.22
2022-09-23T17:12:27.001Z,12.80
2022-09-23T17:14:58.176Z,12.60
2022-09-23T17:17:27.844Z,12.93
2022-09-23T17:19:57.342Z,12.64
2022-09-23T17:22:26.825Z,12.51
2022-09-23T17:24:54.978Z,12.59
2022-09-23T17:27:25.066Z,12.25
2022-09-23T17:29:53.801Z,12.25
2022-09-23T17:32:23.547Z,12.18
2022-09-23T17:34:51.811Z,12.31
2022-09-23T17:37:20.092Z,12.44
2022-09-23T17:39:48.520Z,12.06
2022-09-23T17:42:18.298Z,12.17
2022-09-23T17:44:47.475Z,12.15
2022-09-23T17:47:15.747Z,12.28
2022-09-23T17:49:47.677Z,12.01
2022-09-23T17:52:15.851Z,12.17
2022-09-23T17:54:45.231Z,12.07
2022-09-23T17:57:13.544Z,12.06
2022-09-23T17:59:41.630Z,11.99
2022-09-23T18:02:15.403Z,11.98
2022-09-23T18:04:45.488Z,12.02
2022-09-23T18:07:13.701Z,11.88
2022-09-23T18:09:41.881Z,11.87
2022-09-23T18:12:10.072Z,12.01
2022-09-23T18:14:38.404Z,11.93
2022-09-23T18:17:06.569Z,12.19
2022-09-23T18:19:34.809Z,12.15
2022-09-23T18:22:04.443Z,12.16
2022-09-23T18:24:37.978Z,12.06
2022-09-23T18:27:06.803Z,11.92
2022-09-23T18:29:35.502Z,11.79
2022-09-23T18:32:03.975Z,11.70
2022-09-23T18:34:32.206Z,11.78
2022-09-23T18:37:00.314Z,11.74
2022-09-23T18:39:29.870Z,11.74
2022-09-23T18:41:57.983Z,11.42
2022-09-23T18:44:26.667Z,11.61
2022-09-23T18:46:54.871Z,11.70
2022-09-23T18:49:40.355Z,11.84
2022-09-23T18:52:08.547Z,11.72
2022-09-23T18:54:38.073Z,11.73
2022-09-23T18:57:06.308Z,11.86
2022-09-23T18:59:34.429Z,11.70
2022-09-23T19:02:02.706Z,11.73
2022-09-23T19:04:30.921Z,11.88
2022-09-23T19:06:59.028Z,11.73
2022-09-23T19:09:27.195Z,11.87
2022-09-23T19:11:57.393Z,11.84
2022-09-23T19:14:25.628Z,11.98
2022-09-23T19:16:53.841Z,11.92
2022-09-23T19:19:22.020Z,12.02
2022-09-23T19:21:50.453Z,12.09
2022-09-23T19:24:20.617Z,12.22
2022-09-23T19:26:50.413Z,12.18
2022-09-23T19:29:22.006Z,12.08
2022-09-23T19:31:51.402Z,12.10
2022-09-23T19:34:22.810Z,12.16
2022-09-23T19:36:51.681Z,12.17
2022-09-23T19:39:21.092Z,12.10
2022-09-23T19:41:50.666Z,12.19
2022-09-23T19:44:20.384Z,12.06
2022-09-23T19:47:13.657Z,11.96
2022-09-23T19:49:41.920Z,11.79
2022-09-23T19:52:10.056Z,12.09
2022-09-23T19:54:38.443Z,12.02
2022-09-23T19:57:06.572Z,12.08
2022-09-23T19:59:36.122Z,12.06
2022-09-23T20:02:04.301Z,11.72
2022-09-23T20:04:33.120Z,11.70
2022-09-23T20:07:01.244Z,11.85
2022-09-23T20:09:29.350Z,11.63
2022-09-23T20:11:57.711Z,11.58
2022-09-23T20:14:27.218Z,11.83
2022-09-23T20:16:56.777Z,11.70
2022-09-23T20:19:25.063Z,11.65
2022-09-23T20:22:13.241Z,11.42
2022-09-23T20:24:41.539Z,11.33
2022-09-23T20:27:11.362Z,11.58
2022-09-23T20:29:39.737Z,11.38
2022-09-23T20:32:10.248Z,11.33
2022-09-23T20:34:38.465Z,11.51
2022-09-23T20:37:06.669Z,11.43
2022-09-23T20:39:34.807Z,11.53
2022-09-23T20:42:03.500Z,11.38
2022-09-23T20:44:31.647Z,11.46
2022-09-23T20:46:59.813Z,11.48
2022-09-23T20:49:34.248Z,11.47
2022-09-23T20:52:03.130Z,11.46
2022-09-23T20:54:31.835Z,11.47
2022-09-23T20:57:00.616Z,11.37
2022-09-23T20:59:28.829Z,11.42
2022-09-23T21:01:58.270Z,11.40
2022-09-23T21:04:27.227Z,11.31
2022-09-23T21:06:57.642Z,11.29
2022-09-23T21:09:27.204Z,11.31
2022-09-23T21:11:55.574Z,11.25
2022-09-23T21:14:23.824Z,11.29
2022-09-23T21:16:51.976Z,11.38
2022-09-23T21:19:20.506Z,11.20
2022-09-23T21:21:48.626Z,11.26
2022-09-23T21:25:08.488Z,11.37
2022-09-23T21:27:08.214Z,11.48
2022-09-23T21:29:36.334Z,11.23
2022-09-23T21:32:04.697Z,11.01
2022-09-23T21:34:32.881Z,11.42
2022-09-23T21:37:01.010Z,11.10
2022-09-23T21:39:30.585Z,11.10
2022-09-23T21:41:58.819Z,11.17
2022-09-23T21:44:26.904Z,11.45
2022-09-23T21:46:55.155Z,11.35
2022-09-23T21:49:23.375Z,11.35
2022-09-23T21:51:55.244Z,11.20
2022-09-23T21:54:23.427Z,11.42
2022-09-23T21:56:53.985Z,11.28
2022-09-23T21:59:22.105Z,11.18
2022-09-23T22:01:54.053Z,11.16
2022-09-23T22:04:22.720Z,11.25
2022-09-23T22:06:50.887Z,11.31
2022-09-23T22:09:19.708Z,11.10
2022-09-23T22:12:08.774Z,11.34
2022-09-23T22:14:39.225Z,11.13
2022-09-23T22:17:08.179Z,10.86
2022-09-23T22:19:44.298Z,11.20
2022-09-23T22:22:15.703Z,11.24
2022-09-23T22:24:44.378Z,10.98
2022-09-23T22:27:13.386Z,11.10
2022-09-23T22:30:00.504Z,11.03
2022-09-23T22:32:46.189Z,10.98
2022-09-23T22:35:16.790Z,11.26
2022-09-23T22:37:45.322Z,11.06
2022-09-23T22:40:14.668Z,11.21
2022-09-23T22:42:43.063Z,11.17
2022-09-23T22:45:13.334Z,11.02
2022-09-23T22:47:43.605Z,11.04
2022-09-23T22:50:14.085Z,11.23
2022-09-23T22:52:43.754Z,10.94
2022-09-23T22:55:12.198Z,11.06
2022-09-23T22:57:40.309Z,10.96
2022-09-23T23:00:09.491Z,11.25
2022-09-23T23:02:40.053Z,11.23
2022-09-23T23:05:08.661Z,11.00
2022-09-23T23:07:36.745Z,11.16
2022-09-23T23:10:10.282Z,11.18
2022-09-23T23:12:40.216Z,11.13
2022-09-23T23:15:09.377Z,11.16
2022-09-23T23:17:39.034Z,11.15
2022-09-23T23:20:08.595Z,11.26
2022-09-23T23:22:36.667Z,11.18
2022-09-23T23:25:05.002Z,10.99
2022-09-23T23:27:33.193Z,11.21
2022-09-23T23:30:01.324Z,11.31
2022-09-23T23:32:31.588Z,11.12
2022-09-23T23:35:01.165Z,11.38
2022-09-23T23:37:30.025Z,11.06
2022-09-23T23:39:58.110Z,11.03
2022-09-23T23:42:29.142Z,10.96
2022-09-23T23:44:57.373Z,11.21
2022-09-23T23:47:26.466Z,11.16
2022-09-23T23:49:54.757Z,11.29
2022-09-23T23:52:24.237Z,11.23
2022-09-23T23:54:52.348Z,11.19
2022-09-23T23:57:20.425Z,11.03
2022-09-23T23:59:48.671Z,10.96
